createdAt,value
2018-12-06T00:00:14.462Z,0.00
2018-12-06T00:01:14.454Z,0.00
2018-12-06T00:02:14.442Z,0.00
2018-12-06T00:03:14.430Z,0.00
2018-12-06T00:04:14.418Z,0.00
2018-12-06T00:05:14.412Z,0.00
2018-12-06T00:06:14.397Z,0.00
2018-12-06T00:07:14.386Z,0.00
2018-12-06T00:08:14.385Z,0.00
2018-12-06T00:09:14.366Z,0.00
2018-12-06T00:10:14.352Z,0.00
2018-12-06T00:11:14.341Z,0.00
2018-12-06T00:12:14.331Z,0.00
2018-12-06T00:13:14.322Z,0.00
2018-12-06T00:14:14.309Z,0.00
2018-12-06T00:15:14.297Z,0.00
2018-12-06T00:16:14.287Z,0.00
2018-12-06T00:17:14.275Z,0.00
2018-12-06T00:18:14.267Z,0.00
2018-12-06T00:19:14.254Z,0.00
2018-12-06T00:20:14.245Z,0.00
2018-12-06T00:21:14.233Z,0.00
2018-12-06T00:22:14.220Z,0.00
2018-12-06T00:23:14.211Z,0.00
2018-12-06T00:24:14.198Z,0.00
2018-12-06T00:25:14.187Z,0.00
2018-12-06T00:26:14.175Z,0.00
2018-12-06T00:27:14.164Z,0.00
2018-12-06T00:28:14.155Z,0.00
2018-12-06T00:29:14.146Z,0.00
2018-12-06T00:30:14.134Z,0.00
2018-12-06T00:31:14.120Z,0.00
2018-12-06T00:32:14.111Z,0.00
2018-12-06T00:33:14.101Z,0.00
2018-12-06T00:34:14.087Z,0.00
2018-12-06T00:35:14.076Z,0.00
2018-12-06T00:36:14.067Z,0.00
2018-12-06T00:37:14.055Z,0.00
2018-12-06T00:38:14.043Z,0.00
2018-12-06T00:39:14.030Z,0.00
2018-12-06T00:40:14.021Z,0.00
2018-12-06T00:41:14.007Z,0.00
2018-12-06T00:42:13.999Z,0.00
2018-12-06T00:43:13.989Z,0.00
2018-12-06T00:44:13.978Z,0.00
2018-12-06T00:45:13.966Z,0.00
2018-12-06T00:46:13.954Z,0.00
2018-12-06T00:47:13.945Z,0.00
2018-12-06T00:48:13.933Z,0.00
2018-12-06T00:49:13.920Z,0.00
2018-12-06T00:50:13.909Z,0.00
2018-12-06T00:51:13.900Z,0.00
2018-12-06T00:52:13.886Z,0.00
2018-12-06T00:53:13.879Z,0.00
2018-12-06T00:54:13.866Z,0.00
2018-12-06T00:55:13.856Z,0.00
2018-12-06T00:56:13.847Z,0.00
2018-12-06T00:57:13.835Z,0.00
2018-12-06T00:58:13.822Z,0.00
2018-12-06T00:59:13.810Z,0.00
2018-12-06T01:00:13.802Z,0.00
2018-12-06T01:01:13.787Z,0.00
2018-12-06T01:02:13.778Z,0.00
2018-12-06T01:03:13.765Z,0.00
2018-12-06T01:04:13.755Z,0.00
2018-12-06T01:05:13.744Z,0.00
2018-12-06T01:06:13.733Z,0.00
2018-12-06T01:07:13.723Z,0.00
2018-12-06T01:08:13.709Z,0.00
2018-12-06T01:09:13.700Z,0.00
2018-12-06T01:10:13.691Z,0.00
2018-12-06T01:11:13.678Z,0.00
2018-12-06T01:12:13.670Z,0.00
2018-12-06T01:13:13.658Z,0.00
2018-12-06T01:14:13.645Z,0.00
2018-12-06T01:15:13.635Z,0.00
2018-12-06T01:16:13.626Z,0.00
2018-12-06T01:17:13.616Z,0.00
2018-12-06T01:18:13.601Z,0.00
2018-12-06T01:19:13.591Z,0.00
2018-12-06T01:20:13.576Z,0.00
2018-12-06T01:21:13.569Z,0.00
2018-12-06T01:22:13.558Z,0.00
2018-12-06T01:23:13.550Z,0.00
2018-12-06T01:24:13.536Z,0.00
2018-12-06T01:25:13.526Z,0.00
2018-12-06T01:26:13.514Z,0.00
2018-12-06T01:27:13.501Z,0.00
2018-12-06T01:28:13.494Z,0.00
2018-12-06T01:29:13.482Z,0.00
2018-12-06T01:30:13.468Z,0.00
2018-12-06T01:31:13.457Z,0.00
2018-12-06T01:32:13.457Z,0.00
2018-12-06T01:33:13.435Z,0.00
2018-12-06T01:34:13.424Z,0.00
2018-12-06T01:35:13.413Z,0.00
2018-12-06T01:36:13.407Z,0.00
2018-12-06T01:37:13.395Z,0.00
2018-12-06T01:38:13.397Z,0.00
2018-12-06T01:39:13.371Z,0.00
2018-12-06T01:40:13.360Z,0.00
2018-12-06T01:41:13.347Z,0.00
2018-12-06T01:42:13.346Z,0.00
2018-12-06T01:43:13.323Z,0.00
2018-12-06T01:44:13.318Z,0.00
2018-12-06T01:45:13.304Z,0.00
2018-12-06T01:46:13.298Z,0.00
2018-12-06T01:47:13.282Z,0.00
2018-12-06T01:48:13.272Z,0.00
2018-12-06T01:49:13.259Z,0.00
2018-12-06T01:50:13.248Z,0.00
2018-12-06T01:51:13.235Z,0.00
2018-12-06T01:52:13.225Z,0.00
2018-12-06T01:53:13.216Z,0.00
2018-12-06T01:54:13.200Z,0.00
2018-12-06T01:55:13.190Z,0.00
2018-12-06T01:56:13.189Z,0.00
2018-12-06T01:57:13.168Z,0.00
2018-12-06T01:58:13.158Z,0.00
2018-12-06T01:59:13.144Z,0.00
2018-12-06T02:00:13.138Z,0.00
2018-12-06T02:01:13.124Z,0.00
2018-12-06T02:02:13.111Z,0.00
2018-12-06T02:03:13.103Z,0.00
2018-12-06T02:04:13.091Z,0.00
2018-12-06T02:05:13.078Z,0.00
2018-12-06T02:06:13.069Z,0.00
2018-12-06T02:07:13.059Z,0.00
2018-12-06T02:08:13.047Z,0.00
2018-12-06T02:09:13.037Z,0.00
2018-12-06T02:10:13.023Z,0.00
2018-12-06T02:11:13.012Z,0.00
2018-12-06T02:12:13.001Z,0.00
2018-12-06T02:13:12.989Z,0.00
2018-12-06T02:14:12.981Z,0.00
2018-12-06T02:15:12.971Z,0.00
2018-12-06T02:16:12.956Z,0.00
2018-12-06T02:17:12.951Z,0.00
2018-12-06T02:18:12.936Z,0.00
2018-12-06T02:19:12.923Z,0.00
2018-12-06T02:20:12.914Z,0.00
2018-12-06T02:21:12.901Z,0.00
2018-12-06T02:22:12.893Z,0.00
2018-12-06T02:23:12.883Z,0.00
2018-12-06T02:24:12.866Z,0.00
2018-12-06T02:25:12.854Z,0.00
2018-12-06T02:26:12.844Z,0.00
2018-12-06T02:27:12.835Z,0.00
2018-12-06T02:28:12.822Z,0.00
2018-12-06T02:29:12.810Z,0.00
2018-12-06T02:30:12.800Z,0.00
2018-12-06T02:31:12.789Z,0.00
2018-12-06T02:32:12.781Z,0.00
2018-12-06T02:33:12.768Z,0.00
2018-12-06T02:34:12.760Z,0.00
2018-12-06T02:35:12.745Z,0.00
2018-12-06T02:36:12.734Z,0.00
2018-12-06T02:37:12.724Z,0.00
2018-12-06T02:38:12.720Z,0.00
2018-12-06T02:39:12.704Z,0.00
2018-12-06T02:40:12.690Z,0.00
2018-12-06T02:41:12.679Z,0.00
2018-12-06T02:42:12.667Z,0.00
2018-12-06T02:43:12.656Z,0.00
2018-12-06T02:44:12.646Z,0.00
2018-12-06T02:45:12.893Z,0.00
2018-12-06T02:46:12.623Z,0.00
2018-12-06T02:47:12.616Z,0.00
2018-12-06T02:48:12.602Z,0.00
2018-12-06T02:49:12.588Z,0.00
2018-12-06T02:50:12.580Z,0.00
2018-12-06T02:51:12.567Z,0.00
2018-12-06T02:52:12.557Z,0.00
2018-12-06T02:53:12.544Z,0.00
2018-12-06T02:54:12.538Z,0.00
2018-12-06T02:55:12.521Z,0.00
2018-12-06T02:56:12.514Z,0.00
2018-12-06T02:57:12.500Z,0.00
2018-12-06T02:58:12.489Z,0.00
2018-12-06T02:59:12.479Z,0.00
2018-12-06T03:00:12.471Z,0.00
2018-12-06T03:01:12.455Z,0.00
2018-12-06T03:02:12.452Z,0.00
2018-12-06T03:03:12.437Z,0.00
2018-12-06T03:04:12.425Z,0.00
2018-12-06T03:05:12.412Z,0.00
2018-12-06T03:06:12.404Z,0.00
2018-12-06T03:07:12.392Z,0.00
2018-12-06T03:08:12.379Z,0.00
2018-12-06T03:09:12.368Z,0.00
2018-12-06T03:10:12.429Z,0.00
2018-12-06T03:11:12.349Z,0.00
2018-12-06T03:12:12.335Z,0.00
2018-12-06T03:13:12.326Z,0.00
2018-12-06T03:14:12.315Z,0.00
2018-12-06T03:15:12.304Z,0.00
2018-12-06T03:16:12.294Z,0.00
2018-12-06T03:17:12.282Z,0.00
2018-12-06T03:18:12.270Z,0.00
2018-12-06T03:19:12.266Z,0.00
2018-12-06T03:20:12.254Z,0.00
2018-12-06T03:21:12.237Z,0.00
2018-12-06T03:22:12.226Z,0.00
2018-12-06T03:23:12.215Z,0.00
2018-12-06T03:24:12.204Z,0.00
2018-12-06T03:25:12.191Z,0.00
2018-12-06T03:26:12.181Z,0.00
2018-12-06T03:27:12.172Z,0.00
2018-12-06T03:28:12.165Z,0.00
2018-12-06T03:29:12.146Z,0.00
2018-12-06T03:30:12.138Z,0.00
2018-12-06T03:31:12.126Z,0.00
2018-12-06T03:32:12.115Z,0.00
2018-12-06T03:33:12.105Z,0.00
2018-12-06T03:34:12.095Z,0.00
2018-12-06T03:35:12.083Z,0.00
2018-12-06T03:36:12.071Z,0.00
2018-12-06T03:37:12.061Z,0.00
2018-12-06T03:38:12.046Z,0.00
2018-12-06T03:39:12.039Z,0.00
2018-12-06T03:40:12.024Z,0.00
2018-12-06T03:41:12.013Z,0.00
2018-12-06T03:42:12.001Z,0.00
2018-12-06T03:43:11.992Z,0.00
2018-12-06T03:44:11.981Z,0.00
2018-12-06T03:45:11.969Z,0.00
2018-12-06T03:46:11.959Z,0.00
2018-12-06T03:47:11.946Z,0.00
2018-12-06T03:48:11.938Z,0.00
2018-12-06T03:49:11.925Z,0.00
2018-12-06T03:50:11.915Z,0.00
2018-12-06T03:51:11.913Z,0.00
2018-12-06T03:52:11.898Z,0.00
2018-12-06T03:53:11.882Z,0.00
2018-12-06T03:54:11.870Z,0.00
2018-12-06T03:55:11.859Z,0.00
2018-12-06T03:56:11.852Z,0.00
2018-12-06T03:57:11.837Z,0.00
2018-12-06T03:58:11.823Z,0.00
2018-12-06T03:59:11.816Z,0.00
2018-12-06T04:00:11.803Z,0.00
2018-12-06T04:01:11.801Z,0.00
2018-12-06T04:02:11.781Z,0.00
2018-12-06T04:03:11.770Z,0.00
2018-12-06T04:04:11.760Z,0.00
2018-12-06T04:05:11.750Z,0.00
2018-12-06T04:06:11.739Z,0.00
2018-12-06T04:07:11.727Z,0.00
2018-12-06T04:08:11.716Z,0.00
2018-12-06T04:09:11.704Z,0.00
2018-12-06T04:10:11.695Z,0.00
2018-12-06T04:11:11.683Z,0.00
2018-12-06T04:12:11.671Z,0.00
2018-12-06T04:13:11.659Z,0.00
2018-12-06T04:14:11.650Z,0.00
2018-12-06T04:15:11.638Z,0.00
2018-12-06T04:16:11.626Z,0.00
2018-12-06T04:17:11.617Z,0.00
2018-12-06T04:18:11.607Z,0.00
2018-12-06T04:19:11.594Z,0.00
2018-12-06T04:20:11.584Z,0.00
2018-12-06T04:21:11.572Z,0.00
2018-12-06T04:22:11.562Z,0.00
2018-12-06T04:23:11.554Z,0.00
2018-12-06T04:24:11.536Z,0.00
2018-12-06T04:25:11.526Z,0.00
2018-12-06T04:26:11.516Z,0.00
2018-12-06T04:27:11.505Z,0.00
2018-12-06T04:28:11.496Z,0.00
2018-12-06T04:29:11.482Z,0.00
2018-12-06T04:30:11.473Z,0.00
2018-12-06T04:31:11.469Z,0.00
2018-12-06T04:32:11.451Z,0.00
2018-12-06T04:33:11.437Z,0.00
2018-12-06T04:34:11.434Z,0.00
2018-12-06T04:35:11.418Z,0.00
2018-12-06T04:36:11.406Z,0.00
2018-12-06T04:37:11.394Z,0.00
2018-12-06T04:38:11.384Z,0.00
2018-12-06T04:39:11.372Z,0.00
2018-12-06T04:40:11.368Z,0.00
2018-12-06T04:41:11.351Z,0.00
2018-12-06T04:42:11.343Z,0.00
2018-12-06T04:43:11.330Z,0.00
2018-12-06T04:44:11.317Z,0.00
2018-12-06T04:45:11.311Z,0.00
2018-12-06T04:46:11.293Z,0.00
2018-12-06T04:47:11.282Z,0.00
2018-12-06T04:48:11.274Z,0.00
2018-12-06T04:49:11.263Z,0.00
2018-12-06T04:50:11.251Z,0.00
2018-12-06T04:51:11.241Z,0.00
2018-12-06T04:52:11.228Z,0.00
2018-12-06T04:53:11.226Z,0.00
2018-12-06T04:54:11.206Z,0.00
2018-12-06T04:55:11.197Z,0.00
2018-12-06T04:56:11.183Z,0.00
2018-12-06T04:57:11.171Z,0.00
2018-12-06T04:58:11.163Z,0.00
2018-12-06T04:59:11.152Z,0.00
2018-12-06T05:00:11.139Z,0.00
2018-12-06T05:01:11.137Z,0.00
2018-12-06T05:02:11.117Z,0.00
2018-12-06T05:03:11.107Z,0.00
2018-12-06T05:04:11.097Z,0.00
2018-12-06T05:05:11.085Z,0.00
2018-12-06T05:06:11.074Z,0.00
2018-12-06T05:07:11.061Z,0.00
2018-12-06T05:08:11.058Z,0.00
2018-12-06T05:09:11.041Z,0.00
2018-12-06T05:10:11.029Z,0.00
2018-12-06T05:11:11.018Z,0.00
2018-12-06T05:12:11.007Z,0.00
2018-12-06T05:13:10.995Z,0.00
2018-12-06T05:14:10.983Z,0.00
2018-12-06T05:15:10.974Z,0.00
2018-12-06T05:16:10.963Z,0.00
2018-12-06T05:17:10.951Z,0.00
2018-12-06T05:18:10.939Z,0.00
2018-12-06T05:19:10.933Z,0.00
2018-12-06T05:20:10.920Z,0.00
2018-12-06T05:21:10.906Z,0.00
2018-12-06T05:22:10.894Z,0.00
2018-12-06T05:23:10.886Z,0.00
2018-12-06T05:24:10.874Z,0.00
2018-12-06T05:25:10.861Z,0.00
2018-12-06T05:26:10.851Z,0.00
2018-12-06T05:27:10.840Z,0.00
2018-12-06T05:28:10.833Z,0.00
2018-12-06T05:29:10.815Z,0.00
2018-12-06T05:30:10.805Z,0.00
2018-12-06T05:31:10.796Z,0.00
2018-12-06T05:32:10.783Z,0.00
2018-12-06T05:33:10.774Z,0.00
2018-12-06T05:34:10.762Z,0.00
2018-12-06T05:35:10.751Z,0.00
2018-12-06T05:36:10.739Z,0.00
2018-12-06T05:37:10.728Z,0.00
2018-12-06T05:38:10.716Z,0.00
2018-12-06T05:39:10.705Z,0.00
2018-12-06T05:40:10.692Z,0.00
2018-12-06T05:41:10.685Z,0.00
2018-12-06T05:42:10.673Z,0.00
2018-12-06T05:43:10.660Z,0.00
2018-12-06T05:44:10.649Z,0.00
2018-12-06T05:45:10.640Z,0.00
2018-12-06T05:46:10.629Z,0.00
2018-12-06T05:47:10.617Z,0.00
2018-12-06T05:48:10.607Z,0.00
2018-12-06T05:49:10.593Z,0.00
2018-12-06T05:50:10.584Z,0.00
2018-12-06T05:51:10.574Z,0.00
2018-12-06T05:52:10.559Z,0.00
2018-12-06T05:53:10.551Z,0.00
2018-12-06T05:54:10.547Z,0.00
2018-12-06T05:55:10.529Z,0.00
2018-12-06T05:56:10.516Z,0.00
2018-12-06T05:57:10.503Z,0.00
2018-12-06T05:58:10.494Z,0.00
2018-12-06T05:59:10.482Z,0.00
2018-12-06T06:00:10.473Z,0.00
2018-12-06T06:01:10.459Z,0.00
2018-12-06T06:02:10.451Z,0.00
2018-12-06T06:03:10.446Z,0.00
2018-12-06T06:04:10.425Z,0.00
2018-12-06T06:05:10.418Z,0.00
2018-12-06T06:06:10.411Z,0.00
2018-12-06T06:07:10.393Z,0.00
2018-12-06T06:08:10.388Z,0.00
2018-12-06T06:09:10.370Z,0.00
2018-12-06T06:10:10.361Z,0.00
2018-12-06T06:11:10.347Z,0.00
2018-12-06T06:12:10.339Z,0.00
2018-12-06T06:13:10.327Z,0.00
2018-12-06T06:14:10.313Z,0.00
2018-12-06T06:15:10.307Z,0.00
2018-12-06T06:16:10.292Z,0.00
2018-12-06T06:17:10.283Z,0.00
2018-12-06T06:18:10.283Z,0.00
2018-12-06T06:19:10.259Z,0.00
2018-12-06T06:20:10.253Z,0.00
2018-12-06T06:21:10.241Z,0.00
2018-12-06T06:22:10.227Z,0.00
2018-12-06T06:23:10.222Z,0.00
2018-12-06T06:24:10.203Z,0.00
2018-12-06T06:25:10.200Z,0.00
2018-12-06T06:26:10.180Z,0.00
2018-12-06T06:27:10.169Z,0.00
2018-12-06T06:28:10.159Z,0.00
2018-12-06T06:29:10.148Z,0.00
2018-12-06T06:30:10.139Z,0.00
2018-12-06T06:31:10.126Z,0.00
2018-12-06T06:32:10.117Z,0.00
2018-12-06T06:33:10.110Z,0.00
2018-12-06T06:34:10.093Z,0.00
2018-12-06T06:35:10.089Z,0.00
2018-12-06T06:36:10.069Z,0.00
2018-12-06T06:37:10.058Z,0.00
2018-12-06T06:38:10.051Z,0.00
2018-12-06T06:39:10.302Z,0.00
2018-12-06T06:40:10.029Z,0.00
2018-12-06T06:41:10.019Z,0.00
2018-12-06T06:42:10.005Z,0.00
2018-12-06T06:43:09.994Z,0.00
2018-12-06T06:44:09.981Z,0.00
2018-12-06T06:45:09.971Z,0.00
2018-12-06T06:46:09.962Z,0.00
2018-12-06T06:47:09.955Z,0.00
2018-12-06T06:48:09.939Z,0.00
2018-12-06T06:49:13.691Z,4.00
2018-12-06T06:50:09.922Z,4.00
2018-12-06T06:51:09.903Z,4.00
2018-12-06T06:52:09.898Z,0.00
2018-12-06T06:53:09.881Z,4.00
2018-12-06T06:54:09.872Z,4.00
2018-12-06T06:55:09.863Z,4.00
2018-12-06T06:56:09.850Z,4.00
2018-12-06T06:57:09.837Z,8.00
2018-12-06T06:58:09.827Z,4.00
2018-12-06T06:59:09.816Z,8.00
2018-12-06T07:00:09.803Z,8.00
2018-12-06T07:01:09.795Z,12.00
2018-12-06T07:02:09.782Z,12.00
2018-12-06T07:03:09.772Z,16.00
2018-12-06T07:04:09.762Z,16.00
2018-12-06T07:05:09.751Z,20.00
2018-12-06T07:06:09.738Z,20.00
2018-12-06T07:07:09.727Z,24.00
2018-12-06T07:08:09.717Z,24.00
2018-12-06T07:09:09.704Z,28.00
2018-12-06T07:10:09.774Z,36.00
2018-12-06T07:11:09.683Z,40.00
2018-12-06T07:12:09.671Z,44.00
2018-12-06T07:13:09.661Z,44.00
2018-12-06T07:14:09.649Z,44.00
2018-12-06T07:15:09.649Z,52.00
2018-12-06T07:16:09.627Z,60.00
2018-12-06T07:17:09.614Z,72.00
2018-12-06T07:18:09.603Z,72.00
2018-12-06T07:19:09.594Z,80.00
2018-12-06T07:20:09.593Z,88.00
2018-12-06T07:21:09.571Z,96.00
2018-12-06T07:22:09.565Z,100.00
2018-12-06T07:23:09.551Z,96.00
2018-12-06T07:24:09.542Z,92.00
2018-12-06T07:25:09.525Z,96.00
2018-12-06T07:26:09.516Z,104.00
2018-12-06T07:27:09.505Z,108.00
2018-12-06T07:28:09.494Z,116.00
2018-12-06T07:29:09.483Z,124.00
2018-12-06T07:30:12.437Z,132.00
2018-12-06T07:31:09.461Z,140.00
2018-12-06T07:32:09.450Z,144.00
2018-12-06T07:33:09.438Z,152.00
2018-12-06T07:34:09.429Z,168.00
2018-12-06T07:35:09.441Z,168.00
2018-12-06T07:36:09.437Z,168.00
2018-12-06T07:37:09.404Z,164.00
2018-12-06T07:38:09.383Z,156.00
2018-12-06T07:39:09.370Z,168.00
2018-12-06T07:40:09.361Z,196.00
2018-12-06T07:41:09.349Z,224.00
2018-12-06T07:42:09.340Z,232.00
2018-12-06T07:43:09.327Z,244.00
2018-12-06T07:44:09.320Z,272.00
2018-12-06T07:45:09.313Z,292.00
2018-12-06T07:46:09.294Z,280.00
2018-12-06T07:47:09.282Z,260.00
2018-12-06T07:48:09.271Z,268.00
2018-12-06T07:49:09.262Z,288.00
2018-12-06T07:50:09.252Z,316.00
2018-12-06T07:51:09.237Z,336.00
2018-12-06T07:52:09.232Z,352.00
2018-12-06T07:53:09.223Z,400.00
2018-12-06T07:54:09.211Z,452.00
2018-12-06T07:55:09.194Z,480.00
2018-12-06T07:56:09.185Z,480.00
2018-12-06T07:57:09.175Z,472.00
2018-12-06T07:58:09.165Z,468.00
2018-12-06T07:59:09.176Z,428.00
2018-12-06T08:00:09.146Z,376.00
2018-12-06T08:01:09.134Z,348.00
2018-12-06T08:02:09.122Z,332.00
2018-12-06T08:03:09.110Z,304.00
2018-12-06T08:04:09.095Z,304.00
2018-12-06T08:05:09.084Z,328.00
2018-12-06T08:06:09.075Z,348.00
2018-12-06T08:07:09.064Z,392.00
2018-12-06T08:08:09.060Z,396.00
2018-12-06T08:09:09.041Z,380.00
2018-12-06T08:10:09.029Z,368.00
2018-12-06T08:11:09.019Z,352.00
2018-12-06T08:12:09.005Z,356.00
2018-12-06T08:13:08.998Z,356.00
2018-12-06T08:14:08.985Z,344.00
2018-12-06T08:15:08.974Z,356.00
2018-12-06T08:16:08.970Z,380.00
2018-12-06T08:17:08.951Z,392.00
2018-12-06T08:18:08.959Z,412.00
2018-12-06T08:19:08.932Z,424.00
2018-12-06T08:20:08.917Z,448.00
2018-12-06T08:21:08.906Z,476.00
2018-12-06T08:22:08.897Z,500.00
2018-12-06T08:23:08.887Z,536.00
2018-12-06T08:24:08.871Z,560.00
2018-12-06T08:25:08.860Z,584.00
2018-12-06T08:26:08.851Z,544.00
2018-12-06T08:27:08.840Z,500.00
2018-12-06T08:28:08.841Z,484.00
2018-12-06T08:29:08.816Z,528.00
2018-12-06T08:30:08.804Z,596.00
2018-12-06T08:31:08.797Z,584.00
2018-12-06T08:32:08.789Z,560.00
2018-12-06T08:33:08.777Z,500.00
2018-12-06T08:34:08.762Z,492.00
2018-12-06T08:35:08.750Z,484.00
2018-12-06T08:36:08.741Z,516.00
2018-12-06T08:37:08.729Z,524.00
2018-12-06T08:38:08.715Z,556.00
2018-12-06T08:39:08.710Z,584.00
2018-12-06T08:40:08.695Z,568.00
2018-12-06T08:41:08.684Z,508.00
2018-12-06T08:42:08.684Z,476.00
2018-12-06T08:43:08.686Z,460.00
2018-12-06T08:44:08.647Z,468.00
2018-12-06T08:45:08.641Z,492.00
2018-12-06T08:46:08.628Z,488.00
2018-12-06T08:47:08.616Z,520.00
2018-12-06T08:48:08.605Z,528.00
2018-12-06T08:49:08.591Z,604.00
2018-12-06T08:50:08.584Z,692.00
2018-12-06T08:51:08.575Z,720.00
2018-12-06T08:52:08.562Z,732.00
2018-12-06T08:53:08.575Z,784.00
2018-12-06T08:54:08.539Z,868.00
2018-12-06T08:55:08.524Z,844.00
2018-12-06T08:56:08.516Z,816.00
2018-12-06T08:57:08.512Z,776.00
2018-12-06T08:58:08.492Z,740.00
2018-12-06T08:59:08.484Z,700.00
2018-12-06T09:00:08.474Z,676.00
2018-12-06T09:01:08.648Z,660.00
2018-12-06T09:02:08.452Z,688.00
2018-12-06T09:03:08.438Z,724.00
2018-12-06T09:04:08.427Z,732.00
2018-12-06T09:05:08.419Z,828.00
2018-12-06T09:06:08.403Z,828.00
2018-12-06T09:07:08.391Z,844.00
2018-12-06T09:08:08.382Z,856.00
2018-12-06T09:09:08.371Z,836.00
2018-12-06T09:10:08.367Z,856.00
2018-12-06T09:11:08.348Z,972.00
2018-12-06T09:12:08.335Z,940.00
2018-12-06T09:13:08.331Z,880.00
2018-12-06T09:14:08.315Z,812.00
2018-12-06T09:15:08.308Z,768.00
2018-12-06T09:16:08.291Z,912.00
2018-12-06T09:17:08.280Z,968.00
2018-12-06T09:18:08.279Z,1248.00
2018-12-06T09:19:08.258Z,1204.00
2018-12-06T09:20:08.255Z,1120.00
2018-12-06T09:21:08.270Z,1152.00
2018-12-06T09:22:08.234Z,1164.00
2018-12-06T09:23:08.216Z,1080.00
2018-12-06T09:24:08.202Z,888.00
2018-12-06T09:25:08.193Z,692.00
2018-12-06T09:26:08.179Z,752.00
2018-12-06T09:27:08.181Z,868.00
2018-12-06T09:28:08.160Z,904.00
2018-12-06T09:29:08.146Z,924.00
2018-12-06T09:30:08.147Z,884.00
2018-12-06T09:31:08.124Z,880.00
2018-12-06T09:32:08.126Z,952.00
2018-12-06T09:33:08.106Z,1020.00
2018-12-06T09:34:08.092Z,940.00
2018-12-06T09:35:08.088Z,1008.00
2018-12-06T09:36:08.070Z,1080.00
2018-12-06T09:37:08.082Z,1096.00
2018-12-06T09:38:08.048Z,1160.00
2018-12-06T09:39:08.039Z,1316.00
2018-12-06T09:40:08.025Z,1512.00
2018-12-06T09:41:08.013Z,1496.00
2018-12-06T09:42:08.005Z,1244.00
2018-12-06T09:43:07.993Z,1104.00
2018-12-06T09:44:07.980Z,964.00
2018-12-06T09:45:07.977Z,1068.00
2018-12-06T09:46:07.960Z,1208.00
2018-12-06T09:47:07.950Z,1388.00
2018-12-06T09:48:07.941Z,1556.00
2018-12-06T09:49:07.927Z,1900.00
2018-12-06T09:50:07.918Z,2436.00
2018-12-06T09:51:07.902Z,2984.00
2018-12-06T09:52:07.893Z,3204.00
2018-12-06T09:53:07.881Z,3152.00
2018-12-06T09:54:07.892Z,3044.00
2018-12-06T09:55:07.862Z,3140.00
2018-12-06T09:56:07.848Z,3264.00
2018-12-06T09:57:07.836Z,3108.00
2018-12-06T09:58:07.826Z,2784.00
2018-12-06T09:59:07.816Z,2788.00
2018-12-06T10:00:07.806Z,3144.00
2018-12-06T10:01:07.799Z,3152.00
2018-12-06T10:02:07.783Z,3024.00
2018-12-06T10:03:07.773Z,3068.00
2018-12-06T10:04:07.759Z,3148.00
2018-12-06T10:05:07.750Z,2780.00
2018-12-06T10:06:07.738Z,2680.00
2018-12-06T10:07:07.728Z,2984.00
2018-12-06T10:08:07.794Z,3368.00
2018-12-06T10:09:07.705Z,3744.00
2018-12-06T10:10:07.698Z,3848.00
2018-12-06T10:11:07.686Z,3792.00
2018-12-06T10:12:07.674Z,3752.00
2018-12-06T10:13:07.661Z,3684.00
2018-12-06T10:14:07.654Z,3664.00
2018-12-06T10:15:07.641Z,3480.00
2018-12-06T10:16:07.629Z,3420.00
2018-12-06T10:17:07.678Z,3396.00
2018-12-06T10:18:07.609Z,3408.00
2018-12-06T10:19:07.602Z,3440.00
2018-12-06T10:20:07.584Z,3248.00
2018-12-06T10:21:07.574Z,3232.00
2018-12-06T10:22:07.564Z,3180.00
2018-12-06T10:23:07.554Z,3072.00
2018-12-06T10:24:07.542Z,3080.00
2018-12-06T10:25:07.530Z,3132.00
2018-12-06T10:26:07.522Z,3236.00
2018-12-06T10:27:07.510Z,3440.00
2018-12-06T10:28:07.498Z,3592.00
2018-12-06T10:29:07.486Z,3764.00
2018-12-06T10:30:07.479Z,3868.00
2018-12-06T10:31:07.468Z,3884.00
2018-12-06T10:32:07.457Z,4032.00
2018-12-06T10:33:07.448Z,4160.00
2018-12-06T10:34:07.431Z,4152.00
2018-12-06T10:35:07.421Z,4052.00
2018-12-06T10:36:07.413Z,4120.00
2018-12-06T10:37:07.399Z,4252.00
2018-12-06T10:38:07.390Z,4432.00
2018-12-06T10:39:07.376Z,4456.00
2018-12-06T10:40:07.426Z,4384.00
2018-12-06T10:41:07.355Z,4408.00
2018-12-06T10:42:07.350Z,4596.00
2018-12-06T10:43:07.353Z,4692.00
2018-12-06T10:44:07.322Z,4512.00
2018-12-06T10:45:07.310Z,4252.00
2018-12-06T10:46:07.299Z,4300.00
2018-12-06T10:47:07.293Z,4456.00
2018-12-06T10:48:07.278Z,4804.00
2018-12-06T10:49:07.284Z,5016.00
2018-12-06T10:50:07.258Z,5064.00
2018-12-06T10:51:07.695Z,5032.00
2018-12-06T10:52:07.236Z,4912.00
2018-12-06T10:53:07.225Z,4876.00
2018-12-06T10:54:07.214Z,4908.00
2018-12-06T10:55:07.202Z,4880.00
2018-12-06T10:56:07.194Z,4752.00
2018-12-06T10:57:07.180Z,4516.00
2018-12-06T10:58:07.171Z,4320.00
2018-12-06T10:59:07.156Z,4168.00
2018-12-06T11:00:07.147Z,3896.00
2018-12-06T11:01:07.139Z,3584.00
2018-12-06T11:02:07.125Z,3320.00
2018-12-06T11:03:07.117Z,3020.00
2018-12-06T11:04:07.104Z,2860.00
2018-12-06T11:05:07.215Z,2868.00
2018-12-06T11:06:07.083Z,2984.00
2018-12-06T11:07:07.073Z,3028.00
2018-12-06T11:08:07.061Z,3092.00
2018-12-06T11:09:07.052Z,3032.00
2018-12-06T11:10:07.043Z,3012.00
2018-12-06T11:11:07.034Z,2796.00
2018-12-06T11:12:07.019Z,2852.00
2018-12-06T11:13:07.004Z,3008.00
2018-12-06T11:14:06.994Z,3032.00
2018-12-06T11:15:06.985Z,3060.00
2018-12-06T11:16:06.971Z,2932.00
2018-12-06T11:17:06.959Z,2752.00
2018-12-06T11:18:06.948Z,2724.00
2018-12-06T11:19:06.938Z,2876.00
2018-12-06T11:20:06.926Z,2908.00
2018-12-06T11:21:06.917Z,2752.00
2018-12-06T11:22:06.907Z,2472.00
2018-12-06T11:23:06.895Z,2328.00
2018-12-06T11:24:06.884Z,2388.00
2018-12-06T11:25:06.872Z,2428.00
2018-12-06T11:26:06.861Z,2284.00
2018-12-06T11:27:06.849Z,2164.00
2018-12-06T11:28:06.842Z,2152.00
2018-12-06T11:29:06.827Z,2108.00
2018-12-06T11:30:06.818Z,2124.00
2018-12-06T11:31:06.806Z,2288.00
2018-12-06T11:32:06.797Z,2520.00
2018-12-06T11:33:06.783Z,2860.00
2018-12-06T11:34:06.773Z,3032.00
2018-12-06T11:35:06.768Z,3176.00
2018-12-06T11:36:06.791Z,3260.00
2018-12-06T11:37:06.743Z,3220.00
2018-12-06T11:38:06.730Z,2912.00
2018-12-06T11:39:06.717Z,2512.00
2018-12-06T11:40:06.710Z,2296.00
2018-12-06T11:41:06.694Z,2112.00
2018-12-06T11:42:06.685Z,1988.00
2018-12-06T11:43:06.671Z,1936.00
2018-12-06T11:44:06.667Z,1904.00
2018-12-06T11:45:06.650Z,1880.00
2018-12-06T11:46:06.640Z,1848.00
2018-12-06T11:47:06.629Z,1860.00
2018-12-06T11:48:06.616Z,1896.00
2018-12-06T11:49:06.606Z,1924.00
2018-12-06T11:50:06.598Z,1880.00
2018-12-06T11:51:06.583Z,1748.00
2018-12-06T11:52:06.573Z,1704.00
2018-12-06T11:53:06.562Z,1752.00
2018-12-06T11:54:06.549Z,1716.00
2018-12-06T11:55:06.545Z,1684.00
2018-12-06T11:56:06.528Z,1624.00
2018-12-06T11:57:06.518Z,1580.00
2018-12-06T11:58:11.461Z,1524.00
2018-12-06T11:59:06.495Z,1484.00
2018-12-06T12:00:06.485Z,1476.00
2018-12-06T12:01:06.474Z,1444.00
2018-12-06T12:02:09.977Z,1408.00
2018-12-06T12:03:06.452Z,1416.00
2018-12-06T12:04:06.441Z,1388.00
2018-12-06T12:05:06.427Z,1340.00
2018-12-06T12:06:06.540Z,1268.00
2018-12-06T12:07:06.435Z,1168.00
2018-12-06T12:08:06.395Z,1144.00
2018-12-06T12:09:06.386Z,1108.00
2018-12-06T12:10:06.373Z,1104.00
2018-12-06T12:11:06.362Z,1072.00
2018-12-06T12:12:06.351Z,1052.00
2018-12-06T12:13:06.341Z,996.00
2018-12-06T12:14:06.327Z,1012.00
2018-12-06T12:15:06.317Z,972.00
2018-12-06T12:16:06.316Z,940.00
2018-12-06T12:17:06.300Z,964.00
2018-12-06T12:18:06.329Z,992.00
2018-12-06T12:19:06.277Z,1016.00
2018-12-06T12:20:06.265Z,1024.00
2018-12-06T12:21:06.251Z,992.00
2018-12-06T12:22:06.241Z,1048.00
2018-12-06T12:23:06.227Z,1064.00
2018-12-06T12:24:06.217Z,976.00
2018-12-06T12:25:06.209Z,908.00
2018-12-06T12:26:06.194Z,856.00
2018-12-06T12:27:06.184Z,804.00
2018-12-06T12:28:06.173Z,748.00
2018-12-06T12:29:06.167Z,664.00
2018-12-06T12:30:06.148Z,596.00
2018-12-06T12:31:06.154Z,600.00
2018-12-06T12:32:06.128Z,620.00
2018-12-06T12:33:06.117Z,644.00
2018-12-06T12:34:06.105Z,652.00
2018-12-06T12:35:06.092Z,628.00
2018-12-06T12:36:06.082Z,604.00
2018-12-06T12:37:06.072Z,600.00
2018-12-06T12:38:06.060Z,596.00
2018-12-06T12:39:06.073Z,588.00
2018-12-06T12:40:06.052Z,672.00
2018-12-06T12:41:06.026Z,656.00
2018-12-06T12:42:06.015Z,668.00
2018-12-06T12:43:06.011Z,752.00
2018-12-06T12:44:05.994Z,796.00
2018-12-06T12:45:05.980Z,776.00
2018-12-06T12:46:05.976Z,740.00
2018-12-06T12:47:05.974Z,648.00
2018-12-06T12:48:05.951Z,696.00
2018-12-06T12:49:05.938Z,708.00
2018-12-06T12:50:05.929Z,760.00